Time,TemperatureF,DewpointF,PressureIn,WindDirection,WindDirectionDegrees,WindSpeedMPH,WindSpeedGustMPH,Humidity,HourlyPrecipIn,Conditions,Clouds,dailyrainin,SolarRadiationWatts/m^2,UVIndex,SoftwareType,DateUTC
2026-05-08 00:04:56,53.5,52.1,29.94,NNW,328,0.4,2.4,95,0.00,,,0.00,0,0,n/a,2026-05-08T04:04:56Z
2026-05-08 00:09:59,53.5,52.1,29.94,NW,322,1,2.4,95,0.00,,,0.00,0,0,n/a,2026-05-08T04:09:59Z
2026-05-08 00:14:58,53.5,52.1,29.95,NW,313,0.1,2.3,95,0.00,,,0.00,0,0,n/a,2026-05-08T04:14:58Z
2026-05-08 00:19:57,53.5,52.1,29.95,NW,313,0,0,95,0.00,,,0.00,0,0,n/a,2026-05-08T04:19:57Z
2026-05-08 00:24:59,53.5,52.1,29.95,NW,313,0.3,1.2,95,0.00,,,0.00,0,0,n/a,2026-05-08T04:24:59Z
2026-05-08 00:29:59,53.5,52.1,29.95,NW,313,0.2,1.2,95,0.00,,,0.00,0,0,n/a,2026-05-08T04:29:59Z
2026-05-08 00:34:58,53.4,52,29.95,NW,313,0,1.2,95,0.00,,,0.00,0,0,n/a,2026-05-08T04:34:58Z
2026-05-08 00:39:57,53.4,52,29.95,NW,313,0.5,2.4,95,0.00,,,0.00,0,0,n/a,2026-05-08T04:39:57Z
2026-05-08 00:44:56,53.4,52,29.96,NW,313,0,1.2,95,0.00,,,0.00,0,0,n/a,2026-05-08T04:44:56Z
2026-05-08 00:49:59,53.4,52,29.96,NW,313,0.6,2.4,95,0.00,,,0.00,0,0,n/a,2026-05-08T04:49:59Z
2026-05-08 00:54:57,53.3,51.9,29.96,NNW,348,1,2.4,95,0.00,,,0.00,0,0,n/a,2026-05-08T04:54:57Z
2026-05-08 00:59:56,53.3,51.9,29.96,North,350,0.4,2.3,95,0.00,,,0.00,0,0,n/a,2026-05-08T04:59:56Z
2026-05-08 01:04:56,53.2,51.8,29.95,North,350,1.1,2.4,95,0.00,,,0.00,0,0,n/a,2026-05-08T05:04:56Z
2026-05-08 01:09:57,53.1,51.7,29.95,North,350,1.1,2.4,95,0.00,,,0.00,0,0,n/a,2026-05-08T05:09:57Z
2026-05-08 01:14:56,52.9,51.5,29.95,North,350,0.8,2.4,95,0.00,,,0.00,0,0,n/a,2026-05-08T05:14:56Z
2026-05-08 01:19:58,52.8,51.4,29.95,North,350,0.2,1.2,95,0.00,,,0.00,0,0,n/a,2026-05-08T05:19:58Z
2026-05-08 01:24:57,52.6,51.2,29.95,North,350,0,1.2,95,0.00,,,0.00,0,0,n/a,2026-05-08T05:24:57Z
2026-05-08 01:29:55,52.5,51.1,29.95,North,350,0.1,1.2,95,0.00,,,0.00,0,0,n/a,2026-05-08T05:29:55Z
2026-05-08 01:34:59,52.4,51,29.95,North,350,0,0,95,0.00,,,0.00,0,0,n/a,2026-05-08T05:34:59Z
2026-05-08 01:39:58,52.3,50.9,29.95,North,350,0,1.2,95,0.00,,,0.00,0,0,n/a,2026-05-08T05:39:58Z
2026-05-08 01:44:57,52.2,50.8,29.96,North,350,0,0,95,0.00,,,0.00,0,0,n/a,2026-05-08T05:44:57Z
2026-05-08 01:49:59,52.1,50.7,29.96,North,350,0.8,2.4,95,0.00,,,0.00,0,0,n/a,2026-05-08T05:49:59Z
2026-05-08 01:54:58,52.1,50.7,29.96,North,350,1.1,2.4,95,0.00,,,0.00,0,0,n/a,2026-05-08T05:54:58Z
2026-05-08 01:59:57,52.1,50.7,29.96,North,350,0.2,1.2,95,0.00,,,0.00,0,0,n/a,2026-05-08T05:59:57Z
2026-05-08 02:04:57,52.1,50.7,29.96,North,350,0.6,2.4,95,0.00,,,0.00,0,0,n/a,2026-05-08T06:04:57Z
2026-05-08 02:09:57,52,50.6,29.96,North,350,0,1.2,95,0.00,,,0.00,0,0,n/a,2026-05-08T06:09:57Z
2026-05-08 02:14:56,52,50.6,29.96,North,350,0.6,1.2,95,0.00,,,0.00,0,0,n/a,2026-05-08T06:14:56Z
2026-05-08 02:19:59,52,50.6,29.96,North,350,0.6,1.2,95,0.00,,,0.00,0,0,n/a,2026-05-08T06:19:59Z
2026-05-08 02:24:58,52,50.6,29.96,NNW,329,0.9,2.4,95,0.00,,,0.00,0,0,n/a,2026-05-08T06:24:58Z
2026-05-08 02:29:56,52,50.6,29.96,NW,319,0.9,2.4,95,0.00,,,0.00,0,0,n/a,2026-05-08T06:29:56Z
2026-05-08 02:34:59,52.1,50.8,29.96,NW,319,0.4,1.2,95.3,0.00,,,0.00,0,0,n/a,2026-05-08T06:34:59Z
2026-05-08 02:39:59,52.2,51,29.96,NW,319,0.1,1.2,95.7,0.00,,,0.00,0,0,n/a,2026-05-08T06:39:59Z
2026-05-08 02:44:57,52.3,51.2,29.96,NW,319,0,0,96,0.00,,,0.00,0,0,n/a,2026-05-08T06:44:57Z
2026-05-08 02:49:56,52.3,51.2,29.96,NW,319,0,0,95.9,0.00,,,0.00,0,0,n/a,2026-05-08T06:49:56Z
2026-05-08 02:54:59,52.3,51.2,29.96,NW,319,0,0,96,0.00,,,0.00,0,0,n/a,2026-05-08T06:54:59Z
2026-05-08 02:59:58,52.3,51.2,29.97,NW,319,0,0,96,0.00,,,0.00,0,0,n/a,2026-05-08T06:59:58Z
2026-05-08 03:04:58,52.4,51.3,29.97,NW,319,0.4,1.2,95.8,0.00,,,0.00,0,0,n/a,2026-05-08T07:04:58Z
2026-05-08 03:09:59,52.5,51.4,29.97,NW,319,0.8,1.2,96,0.00,,,0.00,0,0,n/a,2026-05-08T07:09:59Z
2026-05-08 03:14:58,52.7,51.6,29.97,NW,319,0.3,1.2,96,0.00,,,0.00,0,0,n/a,2026-05-08T07:14:58Z
2026-05-08 03:19:57,52.7,51.6,29.97,NW,319,0.4,1.2,96,0.00,,,0.00,0,0,n/a,2026-05-08T07:19:57Z
2026-05-08 03:24:56,52.7,51.6,29.97,NNW,348,1.2,3.6,96,0.00,,,0.00,0,0,n/a,2026-05-08T07:24:56Z
2026-05-08 03:29:59,52.6,51.2,29.97,NNE,14,2,3.6,95.2,0.00,,,0.00,0,0,n/a,2026-05-08T07:29:59Z
2026-05-08 03:34:57,52.4,51,29.97,NNE,13,1.6,2.4,95,0.00,,,0.00,0,0,n/a,2026-05-08T07:34:57Z
2026-05-08 03:39:57,52.3,51.1,29.97,North,10,1.2,2.4,95.6,0.00,,,0.00,0,0,n/a,2026-05-08T07:39:57Z
2026-05-08 03:44:56,52.3,51.2,29.97,North,5,1.1,2.4,96,0.00,,,0.00,0,0,n/a,2026-05-08T07:44:56Z
2026-05-08 03:49:59,52.2,51.1,29.97,North,350,1.3,2.4,96,0.00,,,0.00,0,0,n/a,2026-05-08T07:49:59Z
2026-05-08 03:54:57,52.3,51.2,29.97,North,352,1.5,3.6,96,0.00,,,0.00,0,0,n/a,2026-05-08T07:54:57Z
2026-05-08 03:59:59,52.3,51.2,29.97,North,358,1.6,3.6,96,0.00,,,0.00,0,0,n/a,2026-05-08T07:59:59Z
2026-05-08 04:04:59,52.3,51.2,29.97,NNW,340,2,3.6,96,0.00,,,0.00,0,0,n/a,2026-05-08T08:04:59Z
2026-05-08 04:09:59,52.3,51.2,29.97,NNW,331,1.2,3.5,96,0.00,,,0.00,0,0,n/a,2026-05-08T08:09:59Z
2026-05-08 04:14:59,52.3,51.2,29.98,NNW,336,1.1,2.4,96,0.00,,,0.00,0,0,n/a,2026-05-08T08:14:59Z
2026-05-08 04:19:57,52.3,51.2,29.98,NNW,336,0.5,2.3,96,0.00,,,0.00,0,0,n/a,2026-05-08T08:19:57Z
2026-05-08 04:24:56,52.3,51.2,29.98,NNW,336,0.3,1.2,96,0.00,,,0.00,0,0,n/a,2026-05-08T08:24:56Z
2026-05-08 04:29:59,52.2,51.1,29.98,NNW,336,0,1.2,96,0.00,,,0.00,0,0,n/a,2026-05-08T08:29:59Z
2026-05-08 04:34:57,52.1,50.8,29.98,NNW,339,0.8,2.4,95.3,0.00,,,0.00,0,0,n/a,2026-05-08T08:34:57Z
2026-05-08 04:39:57,52,50.7,29.98,NNW,342,0.8,2.4,95.4,0.00,,,0.00,0,0,n/a,2026-05-08T08:39:57Z
2026-05-08 04:44:56,51.9,50.6,29.98,NNW,342,0.5,1.2,95.2,0.00,,,0.00,0,0,n/a,2026-05-08T08:44:56Z
2026-05-08 04:49:58,51.9,50.5,29.98,NNW,342,0.4,1.2,95.2,0.00,,,0.00,0,0,n/a,2026-05-08T08:49:58Z
2026-05-08 04:54:57,51.8,50.6,29.98,NNW,342,0.8,2.4,95.8,0.00,,,0.00,0,0,n/a,2026-05-08T08:54:57Z
2026-05-08 04:59:56,51.7,50.6,29.99,NNW,341,1.5,2.4,96,0.00,,,0.00,0,0,n/a,2026-05-08T08:59:56Z
2026-05-08 05:04:59,51.7,50.6,29.99,NNW,340,1.4,2.4,96,0.00,,,0.00,0,0,n/a,2026-05-08T09:04:59Z
2026-05-08 05:09:56,51.6,50.5,29.99,NNW,340,0.7,1.2,96,0.00,,,0.00,0,0,n/a,2026-05-08T09:09:56Z
2026-05-08 05:14:59,51.5,50.2,29.99,NNW,340,0.5,1.2,95.5,0.00,,,0.00,0,0,n/a,2026-05-08T09:14:59Z
2026-05-08 05:19:58,51.2,49.8,29.99,NNW,340,0.1,1.2,95,0.00,,,0.00,0,0,n/a,2026-05-08T09:19:58Z
2026-05-08 05:24:56,51,49.6,29.99,NNW,340,0,0,95,0.00,,,0.00,0,0,n/a,2026-05-08T09:24:56Z
2026-05-08 05:29:59,50.7,49.3,30.00,NNW,340,0,0,95,0.00,,,0.00,0,0,n/a,2026-05-08T09:29:59Z
2026-05-08 05:34:58,50.4,49,30.00,NNW,340,0,0,95,0.00,,,0.00,0,0,n/a,2026-05-08T09:34:58Z
2026-05-08 05:39:57,50.1,48.7,30.00,NNW,340,0,0,95,0.00,,,0.00,0,0,n/a,2026-05-08T09:39:57Z
2026-05-08 05:44:59,49.8,48.4,30.00,NNW,340,0,0,95,0.00,,,0.00,0,0,n/a,2026-05-08T09:44:59Z
2026-05-08 05:49:59,49.5,48.1,30.00,NNW,340,0,0,95,0.00,,,0.00,0,0,n/a,2026-05-08T09:49:59Z
2026-05-08 05:54:57,49.1,47.7,30.00,NNW,340,0,0,95,0.00,,,0.00,0,0,n/a,2026-05-08T09:54:57Z
2026-05-08 05:59:57,48.7,47.3,30.00,NNW,341,0,0,95,0.00,,,0.00,0,0,n/a,2026-05-08T09:59:57Z
2026-05-08 06:04:56,48.4,47,30.00,NNW,340,0,0,95,0.00,,,0.00,0,0,n/a,2026-05-08T10:04:56Z
2026-05-08 06:09:58,48.2,46.8,30.00,NNW,340,0,0,95,0.00,,,0.00,0,0,n/a,2026-05-08T10:09:58Z
2026-05-08 06:14:58,48,46.6,30.01,NNW,341,0,0,95,0.00,,,0.00,0,0,n/a,2026-05-08T10:14:58Z
2026-05-08 06:19:57,48,46.6,30.01,NNW,340,0.4,1.2,95,0.00,,,0.00,7,0,n/a,2026-05-08T10:19:57Z
2026-05-08 06:24:59,47.9,46.5,30.01,NNW,340,0.5,1.2,95,0.00,,,0.00,11,0,n/a,2026-05-08T10:24:59Z
2026-05-08 06:29:58,47.8,46.4,30.01,NNW,341,0,0,95,0.00,,,0.00,18,0,n/a,2026-05-08T10:29:58Z
2026-05-08 06:34:56,47.8,46.4,30.01,NNW,341,0,0,95,0.00,,,0.00,21,0,n/a,2026-05-08T10:34:56Z
2026-05-08 06:39:56,47.6,46.2,30.01,NNW,340,0,0,95,0.00,,,0.00,26,0,n/a,2026-05-08T10:39:56Z
2026-05-08 06:44:59,47.6,46.2,30.02,NNW,340,0.4,1.2,95,0.00,,,0.00,39,0,n/a,2026-05-08T10:44:59Z
2026-05-08 06:49:57,47.7,46.3,30.02,NNW,333,0.1,1.2,95.2,0.00,,,0.00,62,0,n/a,2026-05-08T10:49:57Z
2026-05-08 06:54:59,48.1,46.9,30.02,NNE,28,0.4,1.2,95.6,0.00,,,0.00,72,0,n/a,2026-05-08T10:54:59Z
2026-05-08 06:59:57,48.9,47.8,30.03,NNW,340,1.1,3.6,96,0.00,,,0.00,56,0,n/a,2026-05-08T10:59:57Z
2026-05-08 07:04:56,49.4,48.3,30.03,NW,324,1.5,4.8,96,0.00,,,0.00,76,0,n/a,2026-05-08T11:04:56Z
2026-05-08 07:09:56,49.8,48.7,30.03,North,350,1.7,3.6,96,0.00,,,0.00,86,0,n/a,2026-05-08T11:09:56Z
2026-05-08 07:14:59,50.1,49,30.03,NW,319,1.9,4.8,96,0.00,,,0.00,109,0,n/a,2026-05-08T11:14:59Z
2026-05-08 07:19:58,50.4,49.3,30.03,NNW,348,2,3.6,96,0.00,,,0.00,109,0,n/a,2026-05-08T11:19:58Z
2026-05-08 07:24:59,50.7,49.6,30.03,NW,326,2.3,3.6,96,0.00,,,0.00,127,0,n/a,2026-05-08T11:24:59Z
2026-05-08 07:29:58,51,49.9,30.04,NNW,334,2.8,4.8,96,0.00,,,0.00,127,0,n/a,2026-05-08T11:29:58Z
2026-05-08 07:34:56,51.2,50.1,30.04,NW,312,2.6,4.8,96,0.00,,,0.00,214,0,n/a,2026-05-08T11:34:56Z
2026-05-08 07:39:58,51.4,50.3,30.04,NW,306,2.7,4.8,96,0.00,,,0.00,214,0,n/a,2026-05-08T11:39:58Z
2026-05-08 07:44:56,51.7,50.6,30.04,NW,306,2.2,4.6,96,0.00,,,0.00,211,0.5,n/a,2026-05-08T11:44:56Z
2026-05-08 07:49:58,52,50.9,30.04,NW,308,2.7,6,96,0.00,,,0.00,225,0.6,n/a,2026-05-08T11:49:58Z
2026-05-08 07:54:56,52.3,51.2,30.04,NNW,332,3.6,7.2,96,0.00,,,0.00,236,0.6,n/a,2026-05-08T11:54:56Z
2026-05-08 07:59:59,52.5,51.4,30.05,NNW,336,4.2,7.2,96,0.00,,,0.00,251,0.7,n/a,2026-05-08T11:59:59Z
2026-05-08 08:04:58,52.6,51.5,30.05,NW,324,4.9,10.8,96,0.00,,,0.00,264,0.8,n/a,2026-05-08T12:04:58Z
2026-05-08 08:09:58,52.9,51.8,30.05,NNW,336,3.8,7.2,96,0.00,,,0.00,279,0.9,n/a,2026-05-08T12:09:58Z
2026-05-08 08:14:56,53.4,52.2,30.06,NNW,337,3.5,8.4,95.6,0.00,,,0.00,292,0.9,n/a,2026-05-08T12:14:56Z
2026-05-08 08:19:58,53.9,52.5,30.06,NNW,331,3.3,8.1,94.9,0.00,,,0.00,309,1,n/a,2026-05-08T12:19:58Z
2026-05-08 08:24:56,54.5,52.7,30.06,North,352,2.9,6,93.6,0.00,,,0.00,329,1.1,n/a,2026-05-08T12:24:56Z
2026-05-08 08:29:57,55.2,53.1,30.06,NNW,346,2.7,6,92.6,0.00,,,0.00,346,1.2,n/a,2026-05-08T12:29:57Z
2026-05-08 08:34:59,55.9,53.2,30.06,NNW,342,3.8,8.4,90.7,0.00,,,0.00,362,1.3,n/a,2026-05-08T12:34:59Z
2026-05-08 08:39:58,56.5,53.1,30.06,NNW,348,4.3,8.4,88.4,0.00,,,0.00,376,1.3,n/a,2026-05-08T12:39:58Z
2026-05-08 08:44:56,57,52.5,30.06,North,349,5.2,8.4,84.9,0.00,,,0.00,390,1.4,n/a,2026-05-08T12:44:56Z
2026-05-08 08:49:57,57.3,52.4,30.06,North,353,4.2,9.6,83.4,0.00,,,0.00,401,1.5,n/a,2026-05-08T12:49:57Z
2026-05-08 08:54:59,57.7,51.8,30.06,NNW,347,5.9,10.8,80.7,0.00,,,0.00,417,1.7,n/a,2026-05-08T12:54:59Z
2026-05-08 08:59:57,58,51.8,30.07,North,350,4.8,8.4,79.7,0.00,,,0.00,429,1.8,n/a,2026-05-08T12:59:57Z
2026-05-08 09:04:56,58.6,52.4,30.07,NNE,22,2.7,6.9,79.9,0.00,,,0.00,443,1.9,n/a,2026-05-08T13:04:56Z
2026-05-08 09:09:56,59.2,52.5,30.07,North,1,4.1,7.2,78.5,0.00,,,0.00,457,2,n/a,2026-05-08T13:09:56Z
2026-05-08 09:14:59,59.7,52.5,30.07,North,4,3.1,7.2,77,0.00,,,0.00,471,2.1,n/a,2026-05-08T13:14:59Z
2026-05-08 09:19:57,60.1,52.4,30.07,NNE,31,4.4,13.2,75.6,0.00,,,0.00,483,2.1,n/a,2026-05-08T13:19:57Z
2026-05-08 09:24:58,60.5,52.4,30.07,NNE,18,4.6,7.2,74.7,0.00,,,0.00,496,2.1,n/a,2026-05-08T13:24:58Z
2026-05-08 09:29:56,60.8,52.1,30.07,NNE,23,4.3,8.4,72.9,0.00,,,0.00,510,2.2,n/a,2026-05-08T13:29:56Z
2026-05-08 09:34:58,61.1,51.4,30.07,NNE,33,5.7,13.2,70.4,0.00,,,0.00,522,2.4,n/a,2026-05-08T13:34:58Z
2026-05-08 09:39:56,61,50.6,30.07,NE,38,6.1,12.7,68.6,0.00,,,0.00,533,2.7,n/a,2026-05-08T13:39:56Z
2026-05-08 09:44:58,61.1,50.8,30.07,NNE,27,5.3,10.8,68.7,0.00,,,0.00,547,2.8,n/a,2026-05-08T13:44:58Z
2026-05-08 09:49:56,61.3,50.5,30.07,NE,38,4.9,12,67.7,0.00,,,0.00,557,3,n/a,2026-05-08T13:49:56Z
2026-05-08 09:54:58,61.7,51.2,30.07,NE,39,4.1,8.4,68.5,0.00,,,0.00,573,3.2,n/a,2026-05-08T13:54:58Z
2026-05-08 09:59:56,62.4,51.1,30.07,ENE,63,4.9,10.8,66.4,0.00,,,0.00,582,3.5,n/a,2026-05-08T13:59:56Z
2026-05-08 10:04:59,62.7,50.1,30.07,East,92,6.3,10.8,63.3,0.00,,,0.00,594,3.7,n/a,2026-05-08T14:04:59Z